sensor_id;sensor_type;location;lat;lon;timestamp;pressure;altitude;pressure_sealevel;temperature;humidity
56400;BME280;42298;53.638;9.876;2022-08-01T00:00:30;101040.88;;;23.10;72.09
56400;BME280;42298;53.638;9.876;2022-08-01T00:02:55;101039.25;;;23.09;71.29
56400;BME280;42298;53.638;9.876;2022-08-01T00:05:21;101036.75;;;23.01;72.11
56400;BME280;42298;53.638;9.876;2022-08-01T00:07:46;101040.38;;;23.01;71.92
56400;BME280;42298;53.638;9.876;2022-08-01T00:10:13;101042.84;;;23.06;72.12
56400;BME280;42298;53.638;9.876;2022-08-01T00:12:40;101036.78;;;23.04;71.99
56400;BME280;42298;53.638;9.876;2022-08-01T00:15:08;101038.00;;;23.03;72.00
56400;BME280;42298;53.638;9.876;2022-08-01T00:17:34;101027.53;;;23.04;72.24
56400;BME280;42298;53.638;9.876;2022-08-01T00:19:59;101039.22;;;23.06;72.29
56400;BME280;42298;53.638;9.876;2022-08-01T00:22:25;101042.06;;;23.09;72.27
56400;BME280;42298;53.638;9.876;2022-08-01T00:24:50;101044.09;;;23.12;71.57
56400;BME280;42298;53.638;9.876;2022-08-01T00:27:16;101040.38;;;23.01;72.03
56400;BME280;42298;53.638;9.876;2022-08-01T00:29:41;101033.09;;;22.97;72.36
56400;BME280;42298;53.638;9.876;2022-08-01T00:32:07;101041.19;;;23.02;71.94
56400;BME280;42298;53.638;9.876;2022-08-01T00:34:33;101038.38;;;23.02;72.33
56400;BME280;42298;53.638;9.876;2022-08-01T00:36:58;101046.34;;;22.96;71.94
56400;BME280;42298;53.638;9.876;2022-08-01T00:39:23;101042.34;;;22.97;72.04
56400;BME280;42298;53.638;9.876;2022-08-01T00:41:48;101026.66;;;22.96;72.26
56400;BME280;42298;53.638;9.876;2022-08-01T00:44:14;101037.94;;;23.00;72.39
56400;BME280;42298;53.638;9.876;2022-08-01T00:46:40;101028.31;;;22.97;72.16
56400;BME280;42298;53.638;9.876;2022-08-01T00:49:06;101037.63;;;23.05;71.91
56400;BME280;42298;53.638;9.876;2022-08-01T00:51:31;101035.56;;;23.02;71.80
56400;BME280;42298;53.638;9.876;2022-08-01T00:53:58;101038.34;;;22.98;71.99
56400;BME280;42298;53.638;9.876;2022-08-01T00:56:25;101033.50;;;22.95;72.02
56400;BME280;42298;53.638;9.876;2022-08-01T00:58:51;101028.63;;;22.92;71.92
56400;BME280;42298;53.638;9.876;2022-08-01T01:01:17;101033.91;;;22.97;71.66
56400;BME280;42298;53.638;9.876;2022-08-01T01:03:43;101043.19;;;23.01;71.82
56400;BME280;42298;53.638;9.876;2022-08-01T01:06:19;101040.75;;;23.00;71.53
56400;BME280;42298;53.638;9.876;2022-08-01T01:11:29;101049.06;;;22.89;72.27
56400;BME280;42298;53.638;9.876;2022-08-01T01:14:10;101048.75;;;22.94;71.84
56400;BME280;42298;53.638;9.876;2022-08-01T01:16:40;101054.31;;;22.91;71.92
56400;BME280;42298;53.638;9.876;2022-08-01T01:19:11;101047.47;;;22.88;71.96
56400;BME280;42298;53.638;9.876;2022-08-01T01:22:16;101046.19;;;22.82;72.31
56400;BME280;42298;53.638;9.876;2022-08-01T01:25:03;101053.38;;;22.80;73.11
56400;BME280;42298;53.638;9.876;2022-08-01T01:27:54;101052.59;;;22.79;72.88
56400;BME280;42298;53.638;9.876;2022-08-01T01:30:23;101046.03;;;22.68;73.00
56400;BME280;42298;53.638;9.876;2022-08-01T01:32:52;101054.13;;;22.73;73.09
56400;BME280;42298;53.638;9.876;2022-08-01T01:35:24;101056.16;;;22.76;72.80
56400;BME280;42298;53.638;9.876;2022-08-01T01:37:56;101052.50;;;22.72;72.80
56400;BME280;42298;53.638;9.876;2022-08-01T01:40:24;101051.59;;;22.65;73.19
56400;BME280;42298;53.638;9.876;2022-08-01T01:42:50;101057.25;;;22.68;73.32
56400;BME280;42298;53.638;9.876;2022-08-01T01:45:17;101045.53;;;22.59;73.43
56400;BME280;42298;53.638;9.876;2022-08-01T01:47:43;101058.88;;;22.69;73.51
56400;BME280;42298;53.638;9.876;2022-08-01T01:50:10;101050.38;;;22.62;73.33
56400;BME280;42298;53.638;9.876;2022-08-01T01:52:39;101048.38;;;22.63;73.34
56400;BME280;42298;53.638;9.876;2022-08-01T01:55:06;101060.41;;;22.63;73.50
56400;BME280;42298;53.638;9.876;2022-08-01T01:57:36;101058.47;;;22.67;73.26
56400;BME280;42298;53.638;9.876;2022-08-01T02:00:03;101063.19;;;22.60;73.51
56400;BME280;42298;53.638;9.876;2022-08-01T02:02:31;101055.97;;;22.59;73.85
56400;BME280;42298;53.638;9.876;2022-08-01T02:04:57;101063.69;;;22.69;73.25
56400;BME280;42298;53.638;9.876;2022-08-01T02:07:24;101068.94;;;22.70;72.81
56400;BME280;42298;53.638;9.876;2022-08-01T02:09:52;101070.88;;;22.66;73.41
56400;BME280;42298;53.638;9.876;2022-08-01T02:12:19;101073.28;;;22.64;73.03
56400;BME280;42298;53.638;9.876;2022-08-01T02:14:48;101069.22;;;22.62;73.57
56400;BME280;42298;53.638;9.876;2022-08-01T02:17:19;101072.03;;;22.62;73.40
56400;BME280;42298;53.638;9.876;2022-08-01T02:19:45;101066.88;;;22.67;73.28
56400;BME280;42298;53.638;9.876;2022-08-01T02:22:14;101076.66;;;22.80;72.73
56400;BME280;42298;53.638;9.876;2022-08-01T02:25:00;101075.06;;;22.83;72.62
56400;BME280;42298;53.638;9.876;2022-08-01T02:27:44;101071.00;;;22.77;72.88
56400;BME280;42298;53.638;9.876;2022-08-01T02:30:13;101071.81;;;22.77;72.90
56400;BME280;42298;53.638;9.876;2022-08-01T02:32:47;101073.81;;;22.77;72.66
56400;BME280;42298;53.638;9.876;2022-08-01T02:35:20;101066.13;;;22.70;72.93
56400;BME280;42298;53.638;9.876;2022-08-01T02:37:48;101072.91;;;22.69;72.72
56400;BME280;42298;53.638;9.876;2022-08-01T02:40:16;101070.91;;;22.70;73.18
56400;BME280;42298;53.638;9.876;2022-08-01T02:42:44;101069.72;;;22.71;72.74
56400;BME280;42298;53.638;9.876;2022-08-01T02:45:12;101063.19;;;22.60;72.60
56400;BME280;42298;53.638;9.876;2022-08-01T02:47:38;101067.19;;;22.59;72.61
56400;BME280;42298;53.638;9.876;2022-08-01T02:50:05;101069.19;;;22.58;73.01
56400;BME280;42298;53.638;9.876;2022-08-01T02:52:33;101074.00;;;22.58;72.10
56400;BME280;42298;53.638;9.876;2022-08-01T02:55:00;101069.97;;;22.55;72.21
56400;BME280;42298;53.638;9.876;2022-08-01T02:57:27;101074.72;;;22.51;72.73
56400;BME280;42298;53.638;9.876;2022-08-01T02:59:54;101082.03;;;22.59;72.49
56400;BME280;42298;53.638;9.876;2022-08-01T03:02:22;101076.47;;;22.63;71.92
56400;BME280;42298;53.638;9.876;2022-08-01T03:04:49;101081.31;;;22.66;71.83
56400;BME280;42298;53.638;9.876;2022-08-01T03:07:17;101084.88;;;22.63;72.08
56400;BME280;42298;53.638;9.876;2022-08-01T03:09:45;101077.63;;;22.58;72.47
56400;BME280;42298;53.638;9.876;2022-08-01T03:12:17;101076.41;;;22.59;71.80
56400;BME280;42298;53.638;9.876;2022-08-01T03:14:46;101070.22;;;22.46;72.02
56400;BME280;42298;53.638;9.876;2022-08-01T03:17:13;101080.69;;;22.49;72.60
56400;BME280;42298;53.638;9.876;2022-08-01T03:19:40;101089.59;;;22.55;72.18
56400;BME280;42298;53.638;9.876;2022-08-01T03:22:09;101061.31;;;22.41;72.07
56400;BME280;42298;53.638;9.876;2022-08-01T03:24:41;101091.59;;;22.54;72.03
56400;BME280;42298;53.638;9.876;2022-08-01T03:27:08;101090.44;;;22.56;71.73
56400;BME280;42298;53.638;9.876;2022-08-01T03:29:35;101087.63;;;22.56;71.73
56400;BME280;42298;53.638;9.876;2022-08-01T03:32:01;101097.22;;;22.54;72.31
56400;BME280;42298;53.638;9.876;2022-08-01T03:34:28;101097.25;;;22.58;72.00
56400;BME280;42298;53.638;9.876;2022-08-01T03:37:06;101093.69;;;22.61;72.16
56400;BME280;42298;53.638;9.876;2022-08-01T03:39:37;101081.56;;;22.53;71.40
56400;BME280;42298;53.638;9.876;2022-08-01T03:42:09;101093.25;;;22.59;71.80
56400;BME280;42298;53.638;9.876;2022-08-01T03:44:37;101086.44;;;22.60;71.64
56400;BME280;42298;53.638;9.876;2022-08-01T03:47:07;101096.16;;;22.66;71.18
56400;BME280;42298;53.638;9.876;2022-08-01T03:49:37;101094.88;;;22.60;71.23
56400;BME280;42298;53.638;9.876;2022-08-01T03:52:07;101098.88;;;22.59;71.19
56400;BME280;42298;53.638;9.876;2022-08-01T03:54:35;101100.84;;;22.55;71.60
56400;BME280;42298;53.638;9.876;2022-08-01T03:57:01;101104.50;;;22.59;71.28
56400;BME280;42298;53.638;9.876;2022-08-01T03:59:29;101102.06;;;22.58;71.36
56400;BME280;42298;53.638;9.876;2022-08-01T04:01:55;101107.69;;;22.58;71.60
56400;BME280;42298;53.638;9.876;2022-08-01T04:04:21;101103.72;;;22.62;70.98
56400;BME280;42298;53.638;9.876;2022-08-01T04:06:46;101114.94;;;22.62;71.42
56400;BME280;42298;53.638;9.876;2022-08-01T04:09:15;101106.78;;;22.50;71.74
56400;BME280;42298;53.638;9.876;2022-08-01T04:11:41;101112.44;;;22.53;71.91
56400;BME280;42298;53.638;9.876;2022-08-01T04:14:06;101121.72;;;22.58;71.61
56400;BME280;42298;53.638;9.876;2022-08-01T04:16:32;101125.66;;;22.53;72.12
56400;BME280;42298;53.638;9.876;2022-08-01T04:18:57;101119.94;;;22.46;72.20
56400;BME280;42298;53.638;9.876;2022-08-01T04:21:24;101131.53;;;22.44;72.40
56400;BME280;42298;53.638;9.876;2022-08-01T04:23:54;101132.47;;;22.52;72.66
56400;BME280;42298;53.638;9.876;2022-08-01T04:26:21;101140.56;;;22.57;72.16
56400;BME280;42298;53.638;9.876;2022-08-01T04:28:47;101146.22;;;22.61;72.30
56400;BME280;42298;53.638;9.876;2022-08-01T04:31:16;101135.72;;;22.54;71.82
56400;BME280;42298;53.638;9.876;2022-08-01T04:33:46;101145.38;;;22.57;71.83
56400;BME280;42298;53.638;9.876;2022-08-01T04:36:12;101137.22;;;22.48;71.81
56400;BME280;42298;53.638;9.876;2022-08-01T04:38:40;101153.34;;;22.54;71.94
56400;BME280;42298;53.638;9.876;2022-08-01T04:41:09;101161.78;;;22.54;71.65
56400;BME280;42298;53.638;9.876;2022-08-01T04:43:36;101161.59;;;22.44;72.00
56400;BME280;42298;53.638;9.876;2022-08-01T04:46:02;101160.84;;;22.47;71.56
56400;BME280;42298;53.638;9.876;2022-08-01T04:48:29;101173.31;;;22.49;72.25
56400;BME280;42298;53.638;9.876;2022-08-01T04:50:56;101172.16;;;22.50;72.01
56400;BME280;42298;53.638;9.876;2022-08-01T04:53:21;101159.22;;;22.46;71.61
56400;BME280;42298;53.638;9.876;2022-08-01T04:55:47;101179.88;;;22.57;71.71
56400;BME280;42298;53.638;9.876;2022-08-01T04:58:14;101173.06;;;22.58;71.25
56400;BME280;42298;53.638;9.876;2022-08-01T05:00:39;101175.25;;;22.45;71.60
56400;BME280;42298;53.638;9.876;2022-08-01T05:03:05;101185.38;;;22.50;71.05
56400;BME280;42298;53.638;9.876;2022-08-01T05:05:30;101174.84;;;22.43;72.08
56400;BME280;42298;53.638;9.876;2022-08-01T05:07:56;101171.34;;;22.50;71.73
56400;BME280;42298;53.638;9.876;2022-08-01T05:10:22;101174.28;;;22.57;71.24
56400;BME280;42298;53.638;9.876;2022-08-01T05:12:47;101169.78;;;22.52;71.80
56400;BME280;42298;53.638;9.876;2022-08-01T05:15:12;101167.19;;;22.40;71.60
56400;BME280;42298;53.638;9.876;2022-08-01T05:17:37;101178.94;;;22.49;71.95
56400;BME280;42298;53.638;9.876;2022-08-01T05:20:03;101174.22;;;22.53;71.82
56400;BME280;42298;53.638;9.876;2022-08-01T05:22:31;101182.25;;;22.55;71.37
56400;BME280;42298;53.638;9.876;2022-08-01T05:24:57;101187.97;;;22.62;71.74
56400;BME280;42298;53.638;9.876;2022-08-01T05:27:22;101181.53;;;22.62;71.49
56400;BME280;42298;53.638;9.876;2022-08-01T05:29:47;101196.91;;;22.71;71.61
56400;BME280;42298;53.638;9.876;2022-08-01T05:32:13;101199.53;;;22.87;70.99
56400;BME280;42298;53.638;9.876;2022-08-01T05:34:38;101200.31;;;22.84;70.54
56400;BME280;42298;53.638;9.876;2022-08-01T05:37:03;101199.41;;;22.76;69.58
56400;BME280;42298;53.638;9.876;2022-08-01T05:39:29;101194.41;;;22.66;69.79
56400;BME280;42298;53.638;9.876;2022-08-01T05:41:54;101204.03;;;22.65;69.90
56400;BME280;42298;53.638;9.876;2022-08-01T05:44:19;101198.53;;;22.72;69.99
56400;BME280;42298;53.638;9.876;2022-08-01T05:46:45;101202.63;;;22.78;69.43
56400;BME280;42298;53.638;9.876;2022-08-01T05:49:11;101208.19;;;22.75;69.02
56400;BME280;42298;53.638;9.876;2022-08-01T05:51:36;101223.94;;;22.83;69.39
56400;BME280;42298;53.638;9.876;2022-08-01T05:54:01;101219.66;;;22.92;68.70
56400;BME280;42298;53.638;9.876;2022-08-01T05:56:27;101224.97;;;22.97;67.89
56400;BME280;42298;53.638;9.876;2022-08-01T05:58:53;101211.56;;;22.87;68.04
56400;BME280;42298;53.638;9.876;2022-08-01T06:01:18;101220.03;;;22.91;68.11
56400;BME280;42298;53.638;9.876;2022-08-01T06:03:44;101211.16;;;22.85;68.62
56400;BME280;42298;53.638;9.876;2022-08-01T06:06:09;101217.69;;;22.93;68.17
56400;BME280;42298;53.638;9.876;2022-08-01T06:08:35;101218.00;;;22.88;68.29
56400;BME280;42298;53.638;9.876;2022-08-01T06:11:00;101226.91;;;22.93;68.30
56400;BME280;42298;53.638;9.876;2022-08-01T06:13:25;101220.13;;;22.98;68.08
56400;BME280;42298;53.638;9.876;2022-08-01T06:15:51;101240.19;;;22.96;68.31
56400;BME280;42298;53.638;9.876;2022-08-01T06:18:17;101239.78;;;22.98;67.51
56400;BME280;42298;53.638;9.876;2022-08-01T06:20:42;101235.00;;;22.98;67.72
56400;BME280;42298;53.638;9.876;2022-08-01T06:23:08;101245.72;;;22.89;68.46
56400;BME280;42298;53.638;9.876;2022-08-01T06:25:34;101242.44;;;22.84;67.92
56400;BME280;42298;53.638;9.876;2022-08-01T06:27:59;101239.88;;;22.75;67.76
56400;BME280;42298;53.638;9.876;2022-08-01T06:30:25;101245.88;;;22.74;68.29
56400;BME280;42298;53.638;9.876;2022-08-01T06:32:51;101251.78;;;22.65;68.26
56400;BME280;42298;53.638;9.876;2022-08-01T06:35:17;101255.41;;;22.66;67.92
56400;BME280;42298;53.638;9.876;2022-08-01T06:37:43;101256.63;;;22.68;67.92
56400;BME280;42298;53.638;9.876;2022-08-01T06:40:10;101259.53;;;22.75;67.26
56400;BME280;42298;53.638;9.876;2022-08-01T06:42:37;101266.19;;;22.90;67.82
56400;BME280;42298;53.638;9.876;2022-08-01T06:45:06;101266.44;;;23.07;66.71
56400;BME280;42298;53.638;9.876;2022-08-01T06:47:32;101265.75;;;23.17;66.34
56400;BME280;42298;53.638;9.876;2022-08-01T06:49:57;101265.88;;;23.24;66.52
56400;BME280;42298;53.638;9.876;2022-08-01T06:52:22;101260.00;;;23.36;66.27
56400;BME280;42298;53.638;9.876;2022-08-01T06:54:48;101263.28;;;23.42;65.41
56400;BME280;42298;53.638;9.876;2022-08-01T06:57:13;101277.41;;;23.49;65.42
56400;BME280;42298;53.638;9.876;2022-08-01T06:59:38;101271.78;;;23.45;65.25
56400;BME280;42298;53.638;9.876;2022-08-01T07:02:04;101277.41;;;23.45;64.89
56400;BME280;42298;53.638;9.876;2022-08-01T07:04:29;101278.41;;;23.30;64.55
56400;BME280;42298;53.638;9.876;2022-08-01T07:06:55;101273.84;;;23.22;64.90
56400;BME280;42298;53.638;9.876;2022-08-01T07:09:20;101271.81;;;23.19;64.52
56400;BME280;42298;53.638;9.876;2022-08-01T07:11:46;101291.19;;;23.24;64.59
56400;BME280;42298;53.638;9.876;2022-08-01T07:14:11;101292.78;;;23.25;65.01
56400;BME280;42298;53.638;9.876;2022-08-01T07:16:36;101291.25;;;23.31;64.74
56400;BME280;42298;53.638;9.876;2022-08-01T07:19:02;101289.28;;;23.32;64.53
56400;BME280;42298;53.638;9.876;2022-08-01T07:21:27;101285.84;;;23.19;64.16
56400;BME280;42298;53.638;9.876;2022-08-01T07:23:53;101297.44;;;23.14;64.53
56400;BME280;42298;53.638;9.876;2022-08-01T07:26:18;101293.38;;;23.12;63.40
56400;BME280;42298;53.638;9.876;2022-08-01T07:28:43;101287.56;;;23.24;63.32
56400;BME280;42298;53.638;9.876;2022-08-01T07:31:09;101298.56;;;23.36;64.20
56400;BME280;42298;53.638;9.876;2022-08-01T07:33:34;101305.91;;;23.44;63.63
56400;BME280;42298;53.638;9.876;2022-08-01T07:35:59;101307.56;;;23.48;63.17
56400;BME280;42298;53.638;9.876;2022-08-01T07:38:25;101309.84;;;23.39;62.46
56400;BME280;42298;53.638;9.876;2022-08-01T07:40:50;101311.91;;;23.42;62.56
56400;BME280;42298;53.638;9.876;2022-08-01T07:43:15;101315.75;;;23.60;61.55
56400;BME280;42298;53.638;9.876;2022-08-01T07:45:41;101319.47;;;23.71;61.29
56400;BME280;42298;53.638;9.876;2022-08-01T07:48:07;101328.09;;;23.89;60.34
56400;BME280;42298;53.638;9.876;2022-08-01T07:50:33;101333.25;;;23.83;59.13
56400;BME280;42298;53.638;9.876;2022-08-01T07:52:59;101326.88;;;23.86;60.05
56400;BME280;42298;53.638;9.876;2022-08-01T07:55:24;101329.41;;;23.95;58.16
56400;BME280;42298;53.638;9.876;2022-08-01T07:57:49;101353.66;;;24.06;57.43
56400;BME280;42298;53.638;9.876;2022-08-01T08:00:15;101356.81;;;24.01;56.18
56400;BME280;42298;53.638;9.876;2022-08-01T08:02:40;101353.94;;;23.98;56.00
56400;BME280;42298;53.638;9.876;2022-08-01T08:05:06;101367.88;;;24.20;56.16
56400;BME280;42298;53.638;9.876;2022-08-01T08:07:32;101377.63;;;24.70;55.67
56400;BME280;42298;53.638;9.876;2022-08-01T08:09:57;101372.38;;;25.23;54.47
56400;BME280;42298;53.638;9.876;2022-08-01T08:12:23;101361.34;;;25.72;52.70
56400;BME280;42298;53.638;9.876;2022-08-01T08:14:48;101375.22;;;26.23;52.92
56400;BME280;42298;53.638;9.876;2022-08-01T08:17:13;101380.44;;;26.06;50.84
56400;BME280;42298;53.638;9.876;2022-08-01T08:19:39;101381.53;;;25.81;51.81
56400;BME280;42298;53.638;9.876;2022-08-01T08:22:08;101377.50;;;25.75;51.02
56400;BME280;42298;53.638;9.876;2022-08-01T08:24:34;101371.97;;;26.03;51.12
56400;BME280;42298;53.638;9.876;2022-08-01T08:27:00;101390.22;;;26.55;51.56
56400;BME280;42298;53.638;9.876;2022-08-01T08:29:27;101387.81;;;26.81;50.18
56400;BME280;42298;53.638;9.876;2022-08-01T08:31:56;101389.03;;;26.73;48.84
56400;BME280;42298;53.638;9.876;2022-08-01T08:34:21;101385.78;;;26.99;48.46
56400;BME280;42298;53.638;9.876;2022-08-01T08:36:48;101380.91;;;27.38;47.74
56400;BME280;42298;53.638;9.876;2022-08-01T08:39:14;101377.56;;;27.71;45.91
56400;BME280;42298;53.638;9.876;2022-08-01T08:41:39;101383.16;;;27.89;44.49
56400;BME280;42298;53.638;9.876;2022-08-01T08:44:06;101391.91;;;28.16;44.46
56400;BME280;42298;53.638;9.876;2022-08-01T08:46:32;101394.13;;;28.56;41.10
56400;BME280;42298;53.638;9.876;2022-08-01T08:48:58;101392.00;;;28.67;41.41
56400;BME280;42298;53.638;9.876;2022-08-01T08:51:26;101399.88;;;28.93;41.90
56400;BME280;42298;53.638;9.876;2022-08-01T08:53:54;101394.63;;;28.91;39.91
56400;BME280;42298;53.638;9.876;2022-08-01T08:56:20;101412.84;;;28.90;40.74
56400;BME280;42298;53.638;9.876;2022-08-01T08:58:48;101408.84;;;28.88;40.81
56400;BME280;42298;53.638;9.876;2022-08-01T09:01:13;101408.66;;;29.09;39.16
56400;BME280;42298;53.638;9.876;2022-08-01T09:03:39;101407.47;;;29.47;40.05
56400;BME280;42298;53.638;9.876;2022-08-01T09:06:05;101421.81;;;29.70;39.60
56400;BME280;42298;53.638;9.876;2022-08-01T09:08:32;101416.44;;;29.79;37.33
56400;BME280;42298;53.638;9.876;2022-08-01T09:10:58;101416.44;;;29.79;38.45
56400;BME280;42298;53.638;9.876;2022-08-01T09:13:24;101425.25;;;30.18;38.06
56400;BME280;42298;53.638;9.876;2022-08-01T09:15:51;101429.41;;;29.80;37.65
56400;BME280;42298;53.638;9.876;2022-08-01T09:18:27;101427.88;;;29.76;38.17
56400;BME280;42298;53.638;9.876;2022-08-01T09:23:43;101428.31;;;29.71;39.62
56400;BME280;42298;53.638;9.876;2022-08-01T09:26:11;101426.19;;;29.78;39.71
56400;BME280;42298;53.638;9.876;2022-08-01T09:28:38;101430.94;;;29.88;38.81
56400;BME280;42298;53.638;9.876;2022-08-01T09:31:14;101434.22;;;29.83;40.02
56400;BME280;42298;53.638;9.876;2022-08-01T09:34:09;101442.28;;;29.88;40.03
56400;BME280;42298;53.638;9.876;2022-08-01T09:39:13;101452.00;;;30.24;39.26
56400;BME280;42298;53.638;9.876;2022-08-01T09:41:39;101454.44;;;30.52;39.00
56400;BME280;42298;53.638;9.876;2022-08-01T09:44:04;101449.44;;;30.33;39.54
56400;BME280;42298;53.638;9.876;2022-08-01T09:46:30;101442.63;;;30.27;39.50
56400;BME280;42298;53.638;9.876;2022-08-01T09:49:01;101452.88;;;30.48;40.28
56400;BME280;42298;53.638;9.876;2022-08-01T09:51:37;101448.13;;;30.68;39.49
56400;BME280;42298;53.638;9.876;2022-08-01T09:54:05;101457.06;;;30.40;38.92
56400;BME280;42298;53.638;9.876;2022-08-01T09:56:41;101455.00;;;30.10;38.64
56400;BME280;42298;53.638;9.876;2022-08-01T09:59:11;101457.38;;;30.19;39.40
56400;BME280;42298;53.638;9.876;2022-08-01T10:01:49;101462.19;;;30.52;39.56
56400;BME280;42298;53.638;9.876;2022-08-01T10:06:43;101458.47;;;30.55;39.13
56400;BME280;42298;53.638;9.876;2022-08-01T10:09:10;101448.59;;;30.63;38.88
56400;BME280;42298;53.638;9.876;2022-08-01T10:11:36;101450.09;;;30.71;37.87
56400;BME280;42298;53.638;9.876;2022-08-01T10:14:04;101455.34;;;30.72;37.32
56400;BME280;42298;53.638;9.876;2022-08-01T10:16:30;101453.59;;;30.55;37.92
56400;BME280;42298;53.638;9.876;2022-08-01T10:18:57;101474.63;;;30.31;37.29
56400;BME280;42298;53.638;9.876;2022-08-01T10:21:23;101463.84;;;30.19;37.21
56400;BME280;42298;53.638;9.876;2022-08-01T10:23:51;101469.34;;;30.33;37.21
56400;BME280;42298;53.638;9.876;2022-08-01T10:26:19;101472.56;;;30.35;38.10
56400;BME280;42298;53.638;9.876;2022-08-01T10:28:48;101467.44;;;30.53;38.03
56400;BME280;42298;53.638;9.876;2022-08-01T10:31:13;101469.75;;;30.62;37.26
56400;BME280;42298;53.638;9.876;2022-08-01T10:33:40;101470.56;;;30.62;36.94
56400;BME280;42298;53.638;9.876;2022-08-01T10:36:06;101467.38;;;30.57;37.43
56400;BME280;42298;53.638;9.876;2022-08-01T10:38:33;101462.03;;;30.62;37.33
56400;BME280;42298;53.638;9.876;2022-08-01T10:40:59;101462.66;;;30.47;36.77
56400;BME280;42298;53.638;9.876;2022-08-01T10:43:27;101470.00;;;30.44;37.77
56400;BME280;42298;53.638;9.876;2022-08-01T10:45:52;101469.22;;;30.40;36.90
56400;BME280;42298;53.638;9.876;2022-08-01T10:48:47;101465.72;;;29.99;37.05
56400;BME280;42298;53.638;9.876;2022-08-01T10:51:15;101464.00;;;30.05;37.65
56400;BME280;42298;53.638;9.876;2022-08-01T10:53:52;101480.22;;;30.08;36.21
56400;BME280;42298;53.638;9.876;2022-08-01T10:56:18;101472.75;;;30.21;37.41
56400;BME280;42298;53.638;9.876;2022-08-01T10:58:44;101475.69;;;30.11;36.50
56400;BME280;42298;53.638;9.876;2022-08-01T11:01:24;101478.44;;;30.18;36.00
56400;BME280;42298;53.638;9.876;2022-08-01T11:04:03;101481.28;;;30.51;36.73
56400;BME280;42298;53.638;9.876;2022-08-01T11:08:58;101477.19;;;30.22;35.55
56400;BME280;42298;53.638;9.876;2022-08-01T11:11:24;101478.44;;;30.21;35.92
56400;BME280;42298;53.638;9.876;2022-08-01T11:14:06;101477.06;;;29.99;34.83
56400;BME280;42298;53.638;9.876;2022-08-01T11:16:39;101482.88;;;29.89;36.11
56400;BME280;42298;53.638;9.876;2022-08-01T11:19:06;101476.19;;;29.72;35.33
56400;BME280;42298;53.638;9.876;2022-08-01T11:27:21;101487.28;;;29.93;36.36
56400;BME280;42298;53.638;9.876;2022-08-01T11:35:10;101482.09;;;30.22;33.83
56400;BME280;42298;53.638;9.876;2022-08-01T11:37:35;101484.75;;;30.02;33.93
56400;BME280;42298;53.638;9.876;2022-08-01T11:42:41;101492.91;;;29.63;34.58
56400;BME280;42298;53.638;9.876;2022-08-01T11:45:07;101496.13;;;29.65;35.12
56400;BME280;42298;53.638;9.876;2022-08-01T11:47:45;101501.41;;;29.59;34.67
56400;BME280;42298;53.638;9.876;2022-08-01T11:50:31;101493.78;;;29.53;35.29
56400;BME280;42298;53.638;9.876;2022-08-01T11:53:01;101501.00;;;29.65;35.13
56400;BME280;42298;53.638;9.876;2022-08-01T11:55:28;101497.72;;;29.70;34.52
56400;BME280;42298;53.638;9.876;2022-08-01T11:58:07;101497.78;;;29.59;34.05
56400;BME280;42298;53.638;9.876;2022-08-01T12:00:33;101504.88;;;29.37;33.90
56400;BME280;42298;53.638;9.876;2022-08-01T12:03:06;101506.22;;;29.22;33.54
56400;BME280;42298;53.638;9.876;2022-08-01T12:05:33;101509.53;;;29.17;35.44
56400;BME280;42298;53.638;9.876;2022-08-01T12:08:00;101507.91;;;29.16;34.76
56400;BME280;42298;53.638;9.876;2022-08-01T12:10:28;101511.88;;;29.29;36.08
56400;BME280;42298;53.638;9.876;2022-08-01T12:13:00;101515.06;;;29.34;35.63
56400;BME280;42298;53.638;9.876;2022-08-01T12:15:31;101502.13;;;29.26;34.67
56400;BME280;42298;53.638;9.876;2022-08-01T12:17:58;101515.91;;;29.28;35.34
56400;BME280;42298;53.638;9.876;2022-08-01T12:20:30;101528.59;;;29.13;35.41
56400;BME280;42298;53.638;9.876;2022-08-01T12:23:01;101518.53;;;29.05;34.72
56400;BME280;42298;53.638;9.876;2022-08-01T12:25:27;101523.84;;;28.96;35.71
56400;BME280;42298;53.638;9.876;2022-08-01T12:27:52;101529.06;;;29.01;36.00
56400;BME280;42298;53.638;9.876;2022-08-01T12:30:21;101520.19;;;28.95;35.24
56400;BME280;42298;53.638;9.876;2022-08-01T12:32:57;101517.13;;;28.72;35.41
56400;BME280;42298;53.638;9.876;2022-08-01T12:35:24;101525.28;;;28.63;35.01
56400;BME280;42298;53.638;9.876;2022-08-01T12:37:53;101528.59;;;28.51;36.23
56400;BME280;42298;53.638;9.876;2022-08-01T12:40:25;101528.56;;;28.55;36.10
56400;BME280;42298;53.638;9.876;2022-08-01T12:42:53;101511.13;;;28.56;35.75
56400;BME280;42298;53.638;9.876;2022-08-01T12:45:21;101524.94;;;28.47;36.63
56400;BME280;42298;53.638;9.876;2022-08-01T12:47:49;101522.53;;;28.46;36.58
56400;BME280;42298;53.638;9.876;2022-08-01T12:50:18;101532.63;;;28.43;36.14
56400;BME280;42298;53.638;9.876;2022-08-01T12:52:44;101525.75;;;28.48;36.73
56400;BME280;42298;53.638;9.876;2022-08-01T12:55:13;101528.22;;;28.39;34.67
56400;BME280;42298;53.638;9.876;2022-08-01T12:57:41;101525.41;;;28.32;35.01
56400;BME280;42298;53.638;9.876;2022-08-01T13:00:12;101512.94;;;28.12;35.06
56400;BME280;42298;53.638;9.876;2022-08-01T13:02:38;101519.47;;;27.95;35.32
56400;BME280;42298;53.638;9.876;2022-08-01T13:05:05;101525.56;;;27.90;35.48
56400;BME280;42298;53.638;9.876;2022-08-01T13:07:49;101520.72;;;27.87;35.36
56400;BME280;42298;53.638;9.876;2022-08-01T13:10:27;101516.63;;;27.95;36.05
56400;BME280;42298;53.638;9.876;2022-08-01T13:12:55;101513.38;;;27.96;37.16
56400;BME280;42298;53.638;9.876;2022-08-01T13:15:24;101526.72;;;28.03;36.71
56400;BME280;42298;53.638;9.876;2022-08-01T13:17:51;101520.69;;;27.97;36.28
56400;BME280;42298;53.638;9.876;2022-08-01T13:20:27;101523.50;;;27.83;35.86